Time;durP1;ratioP1;P1;durP2;ratioP2;P2;SDS_P1;SDS_P2;PMS_P1;PMS_P2;Temp;Humidity;BMP_temperature;BMP_pressure;BME280_temperature;BME280_humidity;BME280_pressure;Samples;Min_cycle;Max_cycle;Signal;HPM_P1;HPM_P2
2023/10/11 00:01:44;;;;;;;;;;;22.70;56.80;;;;;;5094658;28;19931;-65
2023/10/11 00:04:23;;;;;;;;;;;22.70;56.70;;;;;;5094700;28;20307;-64
2023/10/11 00:06:51;;;;;;;;;;;22.70;56.70;;;;;;5094122;28;19924;-65
2023/10/11 00:09:18;;;;;;;;;;;22.70;56.70;;;;;;5093888;28;19971;-64
2023/10/11 00:11:45;;;;;;;;;;;22.70;56.60;;;;;;5093186;28;20372;-65
2023/10/11 00:14:13;;;;;;;;;;;22.70;56.60;;;;;;5094429;28;19924;-64
2023/10/11 00:16:40;;;;;;;;;;;22.70;56.60;;;;;;5094091;28;19960;-64
2023/10/11 00:19:09;;;;;;;;;;;22.60;56.50;;;;;;5095080;28;19955;-64
2023/10/11 00:21:40;;;;;;;;;;;22.70;56.50;;;;;;5094075;28;19924;-64
2023/10/11 00:24:08;;;;;;;;;;;22.60;56.50;;;;;;5092604;28;19924;-64
2023/10/11 00:26:34;;;;;;;;;;;22.60;56.50;;;;;;5094479;28;19924;-64
2023/10/11 00:29:02;;;;;;;;;;;22.70;56.50;;;;;;5094931;28;19924;-64
2023/10/11 00:31:31;;;;;;;;;;;22.60;56.50;;;;;;5093866;28;19931;-64
2023/10/11 00:33:58;;;;;;;;;;;22.60;56.50;;;;;;5094960;28;19925;-65
2023/10/11 00:36:32;;;;;;;;;;;22.60;56.50;;;;;;5093485;28;20721;-65
2023/10/11 00:38:59;;;;;;;;;;;22.60;56.50;;;;;;5094162;28;19928;-65
2023/10/11 00:41:30;;;;;;;;;;;22.60;56.50;;;;;;5093539;28;19977;-65
2023/10/11 00:43:57;;;;;;;;;;;22.60;56.50;;;;;;5093918;28;19928;-64
2023/10/11 00:46:27;;;;;;;;;;;22.60;56.50;;;;;;5093192;28;20019;-64
2023/10/11 00:49:00;;;;;;;;;;;22.60;56.50;;;;;;5093563;28;19927;-65
2023/10/11 00:51:29;;;;;;;;;;;22.60;56.50;;;;;;5094126;28;19931;-65
2023/10/11 00:53:58;;;;;;;;;;;22.60;56.50;;;;;;5093029;28;19935;-65
2023/10/11 00:56:32;;;;;;;;;;;22.60;56.50;;;;;;5092383;28;19924;-65
2023/10/11 00:59:01;;;;;;;;;;;22.60;56.50;;;;;;5092676;28;19924;-64
2023/10/11 01:01:28;;;;;;;;;;;22.60;56.50;;;;;;5093274;28;19970;-65
2023/10/11 01:03:55;;;;;;;;;;;22.60;56.50;;;;;;5092879;28;19924;-65
2023/10/11 01:06:25;;;;;;;;;;;22.60;56.50;;;;;;5093352;28;19963;-64
2023/10/11 01:08:53;;;;;;;;;;;22.60;56.50;;;;;;5093688;28;19977;-65
2023/10/11 01:11:21;;;;;;;;;;;22.60;56.50;;;;;;5093044;28;19982;-65
2023/10/11 01:13:51;;;;;;;;;;;22.60;56.50;;;;;;5092748;28;19924;-64
2023/10/11 01:16:29;;;;;;;;;;;22.60;56.60;;;;;;5093246;28;19928;-64
2023/10/11 01:18:56;;;;;;;;;;;22.50;56.50;;;;;;5093638;28;19931;-65
2023/10/11 01:21:23;;;;;;;;;;;22.60;56.60;;;;;;5092822;28;19925;-64
2023/10/11 01:23:50;;;;;;;;;;;22.60;56.60;;;;;;5093200;28;19927;-65
2023/10/11 01:26:19;;;;;;;;;;;22.60;56.60;;;;;;5092854;28;19924;-65
2023/10/11 01:28:47;;;;;;;;;;;22.60;56.50;;;;;;5093162;28;19928;-64
2023/10/11 01:31:16;;;;;;;;;;;22.60;56.50;;;;;;5092622;28;19924;-65
2023/10/11 01:33:52;;;;;;;;;;;22.60;56.40;;;;;;5093419;28;19970;-64
2023/10/11 01:36:21;;;;;;;;;;;22.60;56.40;;;;;;5092225;28;20371;-65
2023/10/11 01:38:49;;;;;;;;;;;22.60;56.40;;;;;;5093546;28;19935;-64
2023/10/11 01:41:19;;;;;;;;;;;22.60;56.40;;;;;;5092942;28;19924;-65
2023/10/11 01:43:46;;;;;;;;;;;22.60;56.40;;;;;;5092457;28;19982;-65
2023/10/11 01:46:16;;;;;;;;;;;22.50;56.30;;;;;;5092870;28;19967;-65
2023/10/11 01:48:44;;;;;;;;;;;22.50;56.30;;;;;;5092165;28;19928;-65
2023/10/11 01:51:15;;;;;;;;;;;22.50;56.30;;;;;;5092913;28;20383;-65
2023/10/11 01:53:44;;;;;;;;;;;22.50;56.30;;;;;;5092662;28;19931;-65
2023/10/11 01:56:13;;;;;;;;;;;22.50;56.30;;;;;;5092530;28;19924;-65
2023/10/11 01:58:42;;;;;;;;;;;22.50;56.30;;;;;;5092011;28;19974;-65
2023/10/11 02:01:17;;;;;;;;;;;22.50;56.30;;;;;;5092033;28;20422;-65
2023/10/11 02:03:45;;;;;;;;;;;22.50;56.30;;;;;;5092482;28;19928;-65
2023/10/11 02:06:13;;;;;;;;;;;22.50;56.40;;;;;;5095699;28;19924;-65
2023/10/11 02:08:40;;;;;;;;;;;22.50;56.40;;;;;;5096175;28;20418;-65
2023/10/11 02:11:07;;;;;;;;;;;22.50;56.40;;;;;;5096786;28;20368;-65
2023/10/11 02:13:34;;;;;;;;;;;22.50;56.30;;;;;;5097252;28;19982;-65
2023/10/11 02:16:01;;;;;;;;;;;22.50;56.30;;;;;;5097120;28;19975;-67
2023/10/11 02:18:29;;;;;;;;;;;22.50;56.30;;;;;;5096762;28;19924;-65
2023/10/11 02:20:56;;;;;;;;;;;22.50;56.30;;;;;;5096946;28;19931;-65
2023/10/11 02:23:25;;;;;;;;;;;22.50;56.30;;;;;;5095865;28;19977;-65
2023/10/11 02:25:52;;;;;;;;;;;22.50;56.30;;;;;;5096704;28;19924;-65
2023/10/11 02:28:21;;;;;;;;;;;22.40;56.30;;;;;;5097238;28;19924;-65
2023/10/11 02:30:49;;;;;;;;;;;22.50;56.40;;;;;;5096854;28;19924;-65
2023/10/11 02:33:20;;;;;;;;;;;22.50;56.40;;;;;;5095805;28;20015;-65
2023/10/11 02:35:55;;;;;;;;;;;22.50;56.50;;;;;;5096573;28;19924;-65
2023/10/11 02:38:23;;;;;;;;;;;22.50;56.50;;;;;;5096670;28;19971;-65
2023/10/11 02:40:55;;;;;;;;;;;22.40;56.40;;;;;;5097116;28;20031;-65
2023/10/11 02:43:24;;;;;;;;;;;22.40;56.40;;;;;;5097106;28;19974;-65
2023/10/11 02:45:52;;;;;;;;;;;22.50;56.50;;;;;;5096242;28;19924;-65
2023/10/11 02:48:19;;;;;;;;;;;22.50;56.50;;;;;;5096562;28;19932;-65
2023/10/11 02:50:47;;;;;;;;;;;22.50;56.40;;;;;;5096401;28;19924;-65
2023/10/11 02:53:21;;;;;;;;;;;22.50;56.30;;;;;;5096833;28;20292;-65
2023/10/11 02:55:57;;;;;;;;;;;22.50;56.30;;;;;;5095804;28;19924;-65
2023/10/11 02:58:25;;;;;;;;;;;22.50;56.30;;;;;;5096611;28;19981;-65
2023/10/11 03:00:58;;;;;;;;;;;22.50;56.20;;;;;;5096118;28;20455;-65
2023/10/11 03:03:47;;;;;;;;;;;22.50;56.20;;;;;;5096754;28;19935;-65
2023/10/11 03:06:15;;;;;;;;;;;22.40;56.20;;;;;;5080170;28;19928;-66
2023/10/11 03:08:43;;;;;;;;;;;22.50;56.20;;;;;;5075733;28;19931;-66
2023/10/11 03:11:15;;;;;;;;;;;22.50;56.20;;;;;;5076278;28;19924;-67
2023/10/11 03:13:43;;;;;;;;;;;22.50;56.20;;;;;;5076219;28;19928;-66
2023/10/11 03:16:13;;;;;;;;;;;22.40;56.20;;;;;;5074662;28;20448;-66
2023/10/11 03:18:41;;;;;;;;;;;22.40;56.10;;;;;;5074592;28;19931;-65
2023/10/11 03:21:33;;;;;;;;;;;22.40;56.10;;;;;;5075764;28;19928;-65
2023/10/11 03:24:05;;;;;;;;;;;22.40;56.10;;;;;;5074888;28;20209;-66
2023/10/11 03:26:33;;;;;;;;;;;22.40;56.10;;;;;;5075180;28;20406;-66
2023/10/11 03:29:03;;;;;;;;;;;22.40;56.10;;;;;;5075888;28;20360;-65
2023/10/11 03:31:31;;;;;;;;;;;22.40;56.10;;;;;;5092412;28;20431;-65
2023/10/11 03:33:59;;;;;;;;;;;22.40;56.10;;;;;;5095871;28;19924;-66
2023/10/11 03:36:43;;;;;;;;;;;22.40;56.10;;;;;;5094292;28;19982;-66
2023/10/11 03:39:15;;;;;;;;;;;22.40;56.10;;;;;;5084247;28;20459;-66
2023/10/11 03:41:46;;;;;;;;;;;22.40;56.10;;;;;;5094974;28;20395;-65
2023/10/11 03:44:20;;;;;;;;;;;22.40;56.10;;;;;;5095883;28;19924;-65
2023/10/11 03:46:47;;;;;;;;;;;22.40;56.10;;;;;;5094058;28;19974;-65
2023/10/11 03:49:36;;;;;;;;;;;22.40;56.10;;;;;;5088223;28;20395;-65
2023/10/11 03:52:04;;;;;;;;;;;22.40;56.20;;;;;;5095486;28;19978;-66
2023/10/11 03:54:31;;;;;;;;;;;22.40;56.20;;;;;;5094248;28;19924;-64
2023/10/11 03:57:03;;;;;;;;;;;22.40;56.20;;;;;;5084682;28;20447;-65
2023/10/11 03:59:38;;;;;;;;;;;22.40;56.20;;;;;;5074984;28;19924;-65
2023/10/11 04:02:10;;;;;;;;;;;22.30;56.20;;;;;;5074861;28;20396;-65
2023/10/11 04:04:42;;;;;;;;;;;22.30;56.20;;;;;;5086903;28;19925;-64
2023/10/11 04:07:13;;;;;;;;;;;22.40;56.20;;;;;;5095316;28;19924;-64
2023/10/11 04:09:44;;;;;;;;;;;22.40;56.30;;;;;;5095243;28;19924;-64
2023/10/11 04:12:12;;;;;;;;;;;22.40;56.20;;;;;;5094956;28;19924;-65
2023/10/11 04:14:47;;;;;;;;;;;22.40;56.20;;;;;;5094593;28;19924;-65
2023/10/11 04:17:26;;;;;;;;;;;22.40;56.10;;;;;;5094472;28;19924;-65
2023/10/11 04:20:17;;;;;;;;;;;22.40;56.00;;;;;;5093934;28;19947;-64
2023/10/11 04:23:10;;;;;;;;;;;22.40;56.00;;;;;;5093821;28;19930;-65
2023/10/11 04:25:32;;;;;;;;;;;22.40;55.90;;;;;;5094251;28;20339;-65
2023/10/11 04:28:02;;;;;;;;;;;22.40;56.00;;;;;;5085388;28;19977;-65
2023/10/11 04:30:41;;;;;;;;;;;22.40;56.00;;;;;;5083674;28;20014;-65
2023/10/11 04:33:13;;;;;;;;;;;22.30;55.90;;;;;;5083805;28;19924;-64
2023/10/11 04:35:43;;;;;;;;;;;22.40;56.00;;;;;;5088016;28;19924;-64
2023/10/11 04:38:13;;;;;;;;;;;22.30;55.90;;;;;;5088436;28;19925;-65
2023/10/11 04:40:51;;;;;;;;;;;22.40;55.80;;;;;;5080604;28;19963;-65
2023/10/11 04:43:25;;;;;;;;;;;22.40;55.70;;;;;;5078296;28;20396;-64
2023/10/11 04:45:55;;;;;;;;;;;22.40;55.70;;;;;;5079012;28;19924;-65
2023/10/11 04:48:32;;;;;;;;;;;22.30;55.60;;;;;;5087933;28;19993;-65
2023/10/11 04:53:57;;;;;;;;;;;22.30;55.50;;;;;;5085676;28;19924;-65
2023/10/11 04:59:17;;;;;;;;;;;22.30;55.50;;;;;;5073021;28;20171;-65
2023/10/11 05:04:33;;;;;;;;;;;22.20;55.40;;;;;;5091774;28;19930;-66
2023/10/11 05:07:07;;;;;;;;;;;22.20;55.40;;;;;;5078774;28;19925;-65
2023/10/11 05:09:39;;;;;;;;;;;22.20;55.40;;;;;;5086509;28;19985;-63
2023/10/11 05:12:12;;;;;;;;;;;22.20;55.30;;;;;;5110117;28;19938;-65
2023/10/11 05:14:56;;;;;;;;;;;22.20;55.40;;;;;;5104228;28;20334;-67
2023/10/11 05:17:33;;;;;;;;;;;22.20;55.50;;;;;;5092970;28;19924;-66
2023/10/11 05:22:49;;;;;;;;;;;22.30;55.80;;;;;;5083018;28;20337;-66
2023/10/11 05:27:56;;;;;;;;;;;22.40;55.90;;;;;;5084383;28;19995;-71
2023/10/11 05:30:29;;;;;;;;;;;22.40;55.90;;;;;;5077761;28;19928;-71
2023/10/11 05:52:25;;;;;;;;;;;22.70;54.60;;;;;;5077655;28;19932;-72
2023/10/11 05:54:55;;;;;;;;;;;22.70;54.20;;;;;;5067452;28;19934;-72
2023/10/11 05:57:27;;;;;;;;;;;22.80;54.20;;;;;;5070515;28;19939;-72
2023/10/11 05:59:55;;;;;;;;;;;22.80;54.30;;;;;;5071041;28;20179;-72
2023/10/11 06:02:29;;;;;;;;;;;22.90;54.30;;;;;;5071707;28;19928;-70
2023/10/11 06:04:57;;;;;;;;;;;22.90;54.20;;;;;;5072438;28;19967;-69
2023/10/11 06:07:27;;;;;;;;;;;23.00;54.20;;;;;;5070441;28;19932;-71
2023/10/11 06:09:58;;;;;;;;;;;23.00;54.10;;;;;;5072588;28;19936;-71
2023/10/11 06:12:27;;;;;;;;;;;23.00;54.00;;;;;;5066464;28;20018;-71
2023/10/11 06:14:55;;;;;;;;;;;23.00;53.80;;;;;;5070717;28;20300;-69
2023/10/11 06:20:23;;;;;;;;;;;23.10;53.70;;;;;;5071918;28;19976;-70
2023/10/11 06:22:50;;;;;;;;;;;23.10;53.70;;;;;;5069748;28;19928;-71
2023/10/11 06:25:49;;;;;;;;;;;23.10;53.50;;;;;;5073272;28;20337;-68
2023/10/11 06:28:14;;;;;;;;;;;23.10;53.30;;;;;;5068231;28;19932;-69
2023/10/11 06:30:48;;;;;;;;;;;23.10;53.20;;;;;;5071334;28;19935;-70
2023/10/11 06:33:21;;;;;;;;;;;23.20;53.40;;;;;;5069548;28;19928;-70
2023/10/11 06:35:49;;;;;;;;;;;23.20;53.30;;;;;;5072329;28;20510;-71
2023/10/11 06:38:17;;;;;;;;;;;23.20;53.30;;;;;;5069050;28;19982;-70
2023/10/11 06:40:48;;;;;;;;;;;23.20;53.20;;;;;;5073794;28;19964;-72
2023/10/11 06:43:16;;;;;;;;;;;23.30;53.30;;;;;;5076535;28;19924;-70
2023/10/11 06:45:44;;;;;;;;;;;23.30;53.30;;;;;;5079633;28;19924;-70
2023/10/11 06:48:13;;;;;;;;;;;23.30;53.30;;;;;;5073226;28;19932;-69
2023/10/11 06:50:41;;;;;;;;;;;23.40;53.20;;;;;;5080000;28;19997;-69
2023/10/11 06:53:09;;;;;;;;;;;23.40;53.10;;;;;;5079124;28;19966;-69
2023/10/11 06:55:47;;;;;;;;;;;23.50;53.20;;;;;;5075107;28;20663;-68
2023/10/11 06:58:19;;;;;;;;;;;23.50;53.20;;;;;;5077619;28;19932;-68
2023/10/11 07:00:46;;;;;;;;;;;23.50;53.20;;;;;;5075411;28;19924;-70
2023/10/11 07:03:26;;;;;;;;;;;23.60;53.20;;;;;;5078825;28;19928;-71
2023/10/11 07:06:10;;;;;;;;;;;23.60;53.20;;;;;;5072573;28;19932;-70
2023/10/11 07:08:49;;;;;;;;;;;23.60;53.20;;;;;;5072347;28;20036;-70
2023/10/11 07:11:36;;;;;;;;;;;23.70;53.10;;;;;;5079011;28;19942;-68
2023/10/11 07:14:05;;;;;;;;;;;23.70;53.20;;;;;;5077497;28;20533;-69
2023/10/11 07:16:33;;;;;;;;;;;23.70;53.10;;;;;;5075162;28;20052;-69
2023/10/11 07:19:00;;;;;;;;;;;23.70;53.10;;;;;;5074257;28;19935;-70
2023/10/11 07:21:52;;;;;;;;;;;23.80;53.00;;;;;;5073623;28;20368;-69
2023/10/11 07:24:33;;;;;;;;;;;23.80;52.80;;;;;;5070966;28;19994;-69
2023/10/11 07:27:13;;;;;;;;;;;23.80;52.90;;;;;;5074538;28;19962;-70
2023/10/11 07:29:48;;;;;;;;;;;23.90;53.00;;;;;;5074378;28;19981;-69
2023/10/11 07:32:18;;;;;;;;;;;23.90;52.90;;;;;;5070356;28;19928;-71
2023/10/11 07:34:54;;;;;;;;;;;23.90;53.00;;;;;;5075115;28;20013;-73
2023/10/11 07:37:26;;;;;;;;;;;24.00;53.00;;;;;;5073133;28;20019;-70
2023/10/11 07:40:00;;;;;;;;;;;24.00;52.90;;;;;;5072876;28;19939;-70
2023/10/11 07:42:36;;;;;;;;;;;24.00;52.90;;;;;;5072066;28;19970;-71
2023/10/11 07:45:12;;;;;;;;;;;24.10;53.00;;;;;;5068290;28;19932;-71
2023/10/11 07:47:48;;;;;;;;;;;24.10;52.90;;;;;;5077189;28;19939;-73
2023/10/11 07:50:22;;;;;;;;;;;24.10;52.70;;;;;;5072859;28;21121;-68
2023/10/11 07:52:50;;;;;;;;;;;24.20;52.60;;;;;;5076179;28;20031;-69
2023/10/11 07:55:17;;;;;;;;;;;24.20;52.70;;;;;;5065721;28;19962;-72
2023/10/11 07:57:44;;;;;;;;;;;24.20;52.70;;;;;;5072312;28;19932;-70
2023/10/11 08:00:20;;;;;;;;;;;24.20;52.60;;;;;;5070548;28;20416;-69
2023/10/11 08:03:04;;;;;;;;;;;24.30;52.60;;;;;;5071645;28;19936;-70
2023/10/11 08:05:45;;;;;;;;;;;24.30;52.60;;;;;;5072861;28;19932;-70
2023/10/11 08:08:18;;;;;;;;;;;24.30;52.50;;;;;;5073740;28;20035;-71
2023/10/11 08:10:45;;;;;;;;;;;24.40;52.30;;;;;;5068617;28;19929;-71
2023/10/11 08:13:23;;;;;;;;;;;24.40;52.20;;;;;;5068988;28;19963;-71
2023/10/11 08:15:58;;;;;;;;;;;24.40;52.30;;;;;;5073917;28;19968;-68
2023/10/11 08:18:26;;;;;;;;;;;24.40;52.20;;;;;;5070056;28;19932;-69
2023/10/11 08:20:53;;;;;;;;;;;24.40;52.20;;;;;;5074746;28;19963;-69
2023/10/11 08:23:30;;;;;;;;;;;24.50;52.30;;;;;;5073379;28;20298;-69
2023/10/11 08:25:59;;;;;;;;;;;24.50;52.30;;;;;;5069112;28;19939;-69
2023/10/11 08:28:29;;;;;;;;;;;24.50;52.30;;;;;;5070961;28;19936;-69
2023/10/11 08:30:57;;;;;;;;;;;24.50;52.30;;;;;;5067701;28;21784;-71
2023/10/11 08:33:25;;;;;;;;;;;24.50;52.20;;;;;;5069384;28;19982;-70
2023/10/11 08:35:53;;;;;;;;;;;24.50;52.20;;;;;;5069968;28;20380;-71
2023/10/11 08:38:24;;;;;;;;;;;24.50;52.40;;;;;;5069904;28;19924;-70
2023/10/11 08:40:57;;;;;;;;;;;24.50;52.20;;;;;;5069607;28;19978;-71
2023/10/11 08:43:31;;;;;;;;;;;24.60;52.10;;;;;;5072109;28;19936;-71
2023/10/11 08:46:05;;;;;;;;;;;24.60;52.10;;;;;;5071749;28;19974;-70
2023/10/11 08:48:38;;;;;;;;;;;24.60;52.00;;;;;;5073753;28;19932;-70
2023/10/11 08:51:12;;;;;;;;;;;24.60;52.00;;;;;;5067730;28;19924;-72
2023/10/11 08:53:54;;;;;;;;;;;24.60;51.90;;;;;;5068179;28;20044;-70
2023/10/11 08:56:23;;;;;;;;;;;24.60;51.90;;;;;;5071405;28;19929;-72
2023/10/11 08:58:53;;;;;;;;;;;24.60;51.90;;;;;;5077031;28;19924;-70
2023/10/11 09:01:24;;;;;;;;;;;24.60;51.90;;;;;;5074351;28;19932;-70
2023/10/11 09:04:06;;;;;;;;;;;24.70;51.90;;;;;;5076064;28;19963;-71
2023/10/11 09:06:35;;;;;;;;;;;24.70;51.90;;;;;;5066308;28;19943;-70
2023/10/11 09:09:03;;;;;;;;;;;24.70;51.80;;;;;;5073802;28;19948;-71
2023/10/11 09:11:31;;;;;;;;;;;24.70;51.80;;;;;;5074543;28;19931;-71
2023/10/11 09:14:09;;;;;;;;;;;24.70;51.80;;;;;;5073505;28;19928;-71
2023/10/11 09:16:36;;;;;;;;;;;24.70;51.70;;;;;;5064484;28;19943;-69
2023/10/11 09:19:10;;;;;;;;;;;24.70;51.70;;;;;;5069490;28;19936;-70
2023/10/11 09:21:37;;;;;;;;;;;24.70;51.60;;;;;;5068297;28;19932;-69
2023/10/11 09:24:23;;;;;;;;;;;24.70;51.50;;;;;;5074428;28;19936;-71
2023/10/11 09:27:23;;;;;;;;;;;24.70;51.50;;;;;;5068323;28;19925;-70
2023/10/11 09:29:46;;;;;;;;;;;24.70;51.40;;;;;;5073897;28;20026;-72
2023/10/11 09:32:14;;;;;;;;;;;24.70;51.40;;;;;;5073223;28;20686;-71
2023/10/11 09:34:44;;;;;;;;;;;24.70;51.30;;;;;;5078166;28;19932;-69
2023/10/11 09:37:11;;;;;;;;;;;24.70;51.40;;;;;;5068767;28;20019;-68
2023/10/11 09:39:39;;;;;;;;;;;24.70;51.60;;;;;;5070326;28;19924;-69
2023/10/11 09:42:08;;;;;;;;;;;24.70;51.80;;;;;;5070020;28;19959;-69
2023/10/11 09:44:39;;;;;;;;;;;24.80;51.90;;;;;;5072554;28;19928;-69
2023/10/11 09:47:10;;;;;;;;;;;24.70;51.90;;;;;;5069775;28;21388;-74
2023/10/11 09:49:41;;;;;;;;;;;24.70;51.90;;;;;;5072273;28;20423;-68
2023/10/11 09:52:09;;;;;;;;;;;24.80;51.90;;;;;;5076633;28;20808;-67
2023/10/11 09:54:37;;;;;;;;;;;24.80;51.80;;;;;;5076860;28;19932;-71
2023/10/11 09:57:24;;;;;;;;;;;24.80;51.60;;;;;;5072038;28;20336;-71
2023/10/11 10:00:02;;;;;;;;;;;24.80;51.50;;;;;;5070715;28;19925;-71
2023/10/11 10:02:34;;;;;;;;;;;24.80;51.50;;;;;;5073391;28;19928;-71
2023/10/11 10:05:05;;;;;;;;;;;24.80;51.50;;;;;;5076091;28;19940;-69
2023/10/11 10:07:44;;;;;;;;;;;24.80;51.40;;;;;;5074784;28;20323;-71
2023/10/11 10:10:25;;;;;;;;;;;24.80;51.60;;;;;;5076416;28;20348;-74
2023/10/11 10:12:59;;;;;;;;;;;24.80;51.90;;;;;;5073029;28;20369;-69
2023/10/11 10:15:36;;;;;;;;;;;24.90;51.80;;;;;;5074501;28;19943;-69
2023/10/11 10:18:20;;;;;;;;;;;24.90;51.70;;;;;;5075313;28;20457;-69
2023/10/11 10:20:59;;;;;;;;;;;24.90;51.60;;;;;;5079571;28;20331;-70
2023/10/11 10:23:29;;;;;;;;;;;24.90;51.40;;;;;;5077414;28;19928;-70
2023/10/11 10:26:19;;;;;;;;;;;24.90;51.30;;;;;;5076926;28;19928;-70
2023/10/11 10:28:47;;;;;;;;;;;24.90;51.20;;;;;;5081383;28;19928;-69
2023/10/11 10:31:19;;;;;;;;;;;24.90;51.10;;;;;;5078165;28;19959;-69
2023/10/11 10:33:51;;;;;;;;;;;24.90;51.10;;;;;;5078699;28;20380;-69
2023/10/11 10:36:40;;;;;;;;;;;24.90;51.00;;;;;;5080926;28;20307;-71
2023/10/11 10:39:33;;;;;;;;;;;24.90;50.90;;;;;;5073683;28;20023;-70
2023/10/11 10:42:12;;;;;;;;;;;24.90;50.80;;;;;;5078302;28;19946;-69
2023/10/11 10:47:19;;;;;;;;;;;24.90;50.70;;;;;;5071941;28;19974;-69
2023/10/11 10:49:51;;;;;;;;;;;24.90;50.60;;;;;;5072069;28;20367;-70
2023/10/11 10:52:18;;;;;;;;;;;24.90;50.50;;;;;;5072383;28;19931;-69
2023/10/11 10:55:02;;;;;;;;;;;24.90;50.50;;;;;;5074841;28;20324;-69
2023/10/11 10:57:31;;;;;;;;;;;24.90;50.50;;;;;;5076626;28;20451;-70
2023/10/11 11:00:00;;;;;;;;;;;24.90;50.50;;;;;;5077775;28;19932;-69
2023/10/11 11:02:32;;;;;;;;;;;24.90;50.50;;;;;;5076721;28;20013;-68
2023/10/11 11:04:59;;;;;;;;;;;24.80;50.50;;;;;;5079098;28;19932;-68
2023/10/11 11:07:26;;;;;;;;;;;24.80;50.60;;;;;;5080293;28;19936;-68
2023/10/11 11:09:57;;;;;;;;;;;24.90;50.90;;;;;;5080258;28;19984;-71
2023/10/11 11:12:28;;;;;;;;;;;24.90;50.80;;;;;;5074867;28;19928;-69
2023/10/11 11:14:57;;;;;;;;;;;24.90;50.80;;;;;;5081629;28;19924;-69
2023/10/11 11:17:45;;;;;;;;;;;24.90;50.70;;;;;;5074400;28;19928;-69
2023/10/11 11:20:15;;;;;;;;;;;24.90;50.60;;;;;;5093203;28;19942;-68
2023/10/11 11:22:45;;;;;;;;;;;24.90;50.50;;;;;;5075851;28;20712;-68
2023/10/11 11:25:30;;;;;;;;;;;24.90;50.40;;;;;;5082052;28;19928;-67
2023/10/11 11:28:01;;;;;;;;;;;24.90;50.40;;;;;;5072727;28;19928;-67
2023/10/11 11:30:33;;;;;;;;;;;24.90;50.60;;;;;;5076249;28;19932;-68
2023/10/11 11:33:10;;;;;;;;;;;24.90;50.60;;;;;;5075291;28;19931;-67
2023/10/11 11:35:47;;;;;;;;;;;24.90;50.50;;;;;;5076262;28;20594;-69
2023/10/11 11:38:20;;;;;;;;;;;24.90;50.50;;;;;;5073654;28;19937;-69
2023/10/11 11:40:51;;;;;;;;;;;24.90;50.50;;;;;;5074271;28;19925;-70
2023/10/11 11:43:20;;;;;;;;;;;24.90;50.30;;;;;;5060529;28;19924;-69
2023/10/11 11:45:49;;;;;;;;;;;24.90;50.30;;;;;;5077035;28;19932;-69
2023/10/11 11:48:23;;;;;;;;;;;24.90;50.30;;;;;;5072149;28;19984;-68
2023/10/11 11:50:55;;;;;;;;;;;24.90;50.40;;;;;;5074058;28;20476;-67
2023/10/11 11:53:25;;;;;;;;;;;24.90;50.50;;;;;;5073331;28;19931;-67
2023/10/11 11:55:52;;;;;;;;;;;24.90;50.60;;;;;;5077442;28;19924;-66
2023/10/11 11:58:19;;;;;;;;;;;24.90;50.60;;;;;;5071989;28;19954;-67
2023/10/11 12:00:59;;;;;;;;;;;24.90;50.60;;;;;;5075629;28;20024;-69
2023/10/11 12:03:26;;;;;;;;;;;24.90;50.50;;;;;;5073421;28;19924;-71
2023/10/11 12:05:54;;;;;;;;;;;25.00;50.60;;;;;;5073277;28;19931;-68
2023/10/11 12:08:23;;;;;;;;;;;25.00;50.50;;;;;;5080860;28;20409;-67
2023/10/11 12:10:50;;;;;;;;;;;25.00;50.40;;;;;;5075382;28;19932;-68
2023/10/11 12:13:23;;;;;;;;;;;25.00;50.50;;;;;;5077960;28;19932;-69
2023/10/11 12:15:57;;;;;;;;;;;25.00;50.50;;;;;;5077076;28;19959;-67
2023/10/11 12:18:35;;;;;;;;;;;25.00;50.30;;;;;;5070424;28;19968;-70
2023/10/11 12:21:10;;;;;;;;;;;25.00;50.20;;;;;;5072891;28;20295;-68
2023/10/11 12:23:46;;;;;;;;;;;25.00;50.20;;;;;;5075828;28;20023;-67
2023/10/11 12:26:17;;;;;;;;;;;25.00;50.20;;;;;;5079142;28;19946;-64
2023/10/11 12:28:44;;;;;;;;;;;25.00;50.20;;;;;;5076984;28;19939;-63
2023/10/11 12:31:12;;;;;;;;;;;25.00;50.10;;;;;;5083573;28;19963;-63
2023/10/11 12:33:39;;;;;;;;;;;25.00;50.20;;;;;;5078196;28;19936;-64
2023/10/11 12:36:06;;;;;;;;;;;25.00;50.10;;;;;;5077044;28;20472;-65
2023/10/11 12:38:39;;;;;;;;;;;25.00;50.10;;;;;;5076404;28;20030;-65
2023/10/11 12:41:07;;;;;;;;;;;25.00;50.10;;;;;;5079726;28;19981;-67
2023/10/11 12:43:34;;;;;;;;;;;25.00;50.00;;;;;;5074340;28;20070;-63
2023/10/11 12:46:01;;;;;;;;;;;25.00;50.10;;;;;;5076359;28;19932;-66
2023/10/11 12:48:29;;;;;;;;;;;25.00;50.10;;;;;;5074557;28;19985;-67
2023/10/11 12:50:57;;;;;;;;;;;25.00;50.10;;;;;;5076017;28;19924;-64
2023/10/11 12:53:29;;;;;;;;;;;25.10;50.20;;;;;;5074556;28;20304;-64
2023/10/11 12:55:56;;;;;;;;;;;25.00;50.00;;;;;;5079380;28;19928;-64
2023/10/11 12:58:27;;;;;;;;;;;25.00;50.00;;;;;;5074201;28;20288;-63
2023/10/11 13:01:05;;;;;;;;;;;25.00;50.00;;;;;;5076497;28;19924;-65
2023/10/11 13:03:40;;;;;;;;;;;25.00;49.90;;;;;;5073530;28;19977;-64
2023/10/11 13:06:09;;;;;;;;;;;25.10;50.00;;;;;;5069240;28;19998;-64
2023/10/11 13:08:40;;;;;;;;;;;25.10;50.00;;;;;;5073425;28;19936;-62
2023/10/11 13:11:11;;;;;;;;;;;25.10;50.10;;;;;;5073433;28;19936;-64
2023/10/11 13:13:43;;;;;;;;;;;25.10;50.10;;;;;;5064199;28;20019;-65
2023/10/11 13:16:26;;;;;;;;;;;25.10;50.10;;;;;;5062133;28;19986;-63
2023/10/11 13:18:53;;;;;;;;;;;25.10;50.10;;;;;;5066247;28;20376;-63
2023/10/11 13:21:25;;;;;;;;;;;25.10;50.00;;;;;;5070426;28;20380;-64
2023/10/11 13:23:53;;;;;;;;;;;25.10;50.10;;;;;;5068790;28;20332;-65
2023/10/11 13:26:20;;;;;;;;;;;25.10;50.30;;;;;;5065036;28;19924;-63
2023/10/11 13:28:53;;;;;;;;;;;25.10;50.30;;;;;;5076763;28;19935;-65
2023/10/11 13:31:20;;;;;;;;;;;25.10;50.20;;;;;;5075593;28;19925;-63
2023/10/11 13:33:47;;;;;;;;;;;25.10;50.10;;;;;;5073703;28;19932;-65
2023/10/11 13:36:14;;;;;;;;;;;25.10;50.10;;;;;;5076736;28;19928;-63
2023/10/11 13:38:45;;;;;;;;;;;25.10;50.10;;;;;;5077947;28;20523;-61
2023/10/11 13:41:12;;;;;;;;;;;25.10;50.10;;;;;;5072305;28;19929;-63
2023/10/11 13:43:40;;;;;;;;;;;25.10;50.10;;;;;;5073435;28;20373;-63
2023/10/11 13:46:07;;;;;;;;;;;25.10;50.20;;;;;;5078934;28;21211;-63
2023/10/11 13:48:40;;;;;;;;;;;25.10;50.20;;;;;;5076739;28;19928;-63
2023/10/11 13:51:10;;;;;;;;;;;25.10;50.20;;;;;;5074979;28;19928;-62
2023/10/11 13:53:41;;;;;;;;;;;25.10;50.20;;;;;;5077118;28;19933;-64
2023/10/11 13:56:20;;;;;;;;;;;25.10;50.20;;;;;;5073827;28;20379;-67
2023/10/11 13:58:48;;;;;;;;;;;25.10;50.10;;;;;;5079551;28;20352;-63
2023/10/11 14:01:37;;;;;;;;;;;25.10;50.10;;;;;;5079803;28;20019;-66
2023/10/11 14:04:13;;;;;;;;;;;25.00;50.10;;;;;;5080624;28;19968;-64
2023/10/11 14:07:01;;;;;;;;;;;25.00;50.10;;;;;;5079778;28;19932;-65
2023/10/11 14:09:30;;;;;;;;;;;25.00;50.00;;;;;;5074592;28;19924;-65
2023/10/11 14:11:57;;;;;;;;;;;25.00;50.00;;;;;;5073456;28;19932;-66
2023/10/11 14:14:29;;;;;;;;;;;25.00;50.00;;;;;;5078840;28;19993;-69
2023/10/11 14:16:57;;;;;;;;;;;25.10;50.40;;;;;;5081990;28;19924;-67
2023/10/11 14:19:24;;;;;;;;;;;25.00;50.30;;;;;;5080969;28;19974;-65
2023/10/11 14:21:52;;;;;;;;;;;25.10;50.20;;;;;;5077352;28;19939;-70
2023/10/11 14:24:19;;;;;;;;;;;25.10;50.00;;;;;;5076394;28;19963;-66
2023/10/11 14:26:47;;;;;;;;;;;25.10;50.10;;;;;;5075781;28;20027;-65
2023/10/11 14:29:15;;;;;;;;;;;25.10;50.30;;;;;;5073248;28;19994;-65
2023/10/11 14:31:43;;;;;;;;;;;25.10;50.10;;;;;;5076275;28;19925;-66
2023/10/11 14:34:11;;;;;;;;;;;25.10;50.10;;;;;;5089667;28;19924;-66
2023/10/11 14:36:40;;;;;;;;;;;25.10;50.30;;;;;;5089400;28;20015;-65
2023/10/11 14:39:18;;;;;;;;;;;25.10;50.20;;;;;;5092465;28;20293;-65
2023/10/11 14:41:51;;;;;;;;;;;25.10;50.30;;;;;;5077243;28;20369;-65
2023/10/11 14:44:18;;;;;;;;;;;25.10;50.30;;;;;;5077017;28;19954;-63
2023/10/11 14:46:47;;;;;;;;;;;25.10;50.30;;;;;;5075498;28;20010;-64
2023/10/11 14:49:19;;;;;;;;;;;25.10;50.30;;;;;;5075474;28;20299;-63
2023/10/11 14:51:47;;;;;;;;;;;25.10;50.30;;;;;;5085580;28;19924;-64
2023/10/11 14:54:14;;;;;;;;;;;25.10;50.30;;;;;;5084310;28;20379;-64
2023/10/11 14:56:42;;;;;;;;;;;25.10;50.40;;;;;;5086352;28;19931;-64
2023/10/11 14:59:12;;;;;;;;;;;25.10;50.40;;;;;;5087710;28;19976;-64
2023/10/11 15:01:39;;;;;;;;;;;25.00;50.50;;;;;;5096038;28;19930;-63
2023/10/11 15:04:09;;;;;;;;;;;25.00;50.60;;;;;;5096371;28;19935;-66
2023/10/11 15:06:38;;;;;;;;;;;25.00;50.70;;;;;;5096415;28;19978;-60
2023/10/11 15:09:09;;;;;;;;;;;25.00;50.80;;;;;;5096489;28;19931;-65
2023/10/11 15:11:36;;;;;;;;;;;25.00;51.00;;;;;;5095646;28;19925;-64
2023/10/11 15:14:03;;;;;;;;;;;25.00;51.20;;;;;;5095314;28;19928;-64
2023/10/11 15:16:30;;;;;;;;;;;25.00;51.40;;;;;;5081579;28;20419;-64
2023/10/11 15:18:57;;;;;;;;;;;24.90;51.50;;;;;;5075495;28;19992;-64
2023/10/11 15:21:25;;;;;;;;;;;24.90;51.70;;;;;;5074811;28;19929;-64